createdAt,value
2023-01-21T00:03:58.303Z,4.3
2023-01-21T00:09:34.391Z,4.2
2023-01-21T00:15:10.135Z,4.1
2023-01-21T00:21:06.585Z,4.2
2023-01-21T00:27:02.160Z,4.2
2023-01-21T00:32:37.292Z,4.1
2023-01-21T00:38:21.057Z,4.1
2023-01-21T00:44:05.666Z,4.1
2023-01-21T00:50:05.375Z,4
2023-01-21T00:55:38.364Z,3.9
2023-01-21T01:02:12.690Z,3.9
2023-01-21T01:08:05.196Z,3.8
2023-01-21T01:13:50.239Z,3.8
2023-01-21T01:19:32.432Z,3.8
2023-01-21T01:25:17.112Z,3.7
2023-01-21T01:31:00.519Z,3.7
2023-01-21T01:36:48.037Z,3.7
2023-01-21T01:42:23.230Z,3.6
2023-01-21T01:48:18.991Z,3.6
2023-01-21T01:55:02.672Z,3.7
2023-01-21T02:00:38.083Z,3.7
2023-01-21T02:08:07.586Z,3.8
2023-01-21T02:13:49.777Z,3.7
2023-01-21T02:19:29.869Z,3.8
2023-01-21T02:25:24.855Z,3.7
2023-01-21T02:31:00.714Z,3.8
2023-01-21T02:36:38.023Z,3.8
2023-01-21T02:42:13.169Z,3.7
2023-01-21T02:47:52.432Z,3.7
2023-01-21T02:53:49.279Z,3.6
2023-01-21T03:00:48.010Z,3.4
2023-01-21T03:06:32.769Z,3.4
2023-01-21T03:12:08.041Z,3.4
2023-01-21T03:17:52.221Z,3.4
2023-01-21T03:23:27.433Z,3.5
2023-01-21T03:29:05.930Z,3.5
2023-01-21T03:34:44.312Z,3.4
2023-01-21T03:40:23.596Z,3.4
2023-01-21T03:45:58.965Z,3.3
2023-01-21T03:51:35.211Z,3.3
2023-01-21T03:57:19.050Z,3.3
2023-01-21T04:03:43.662Z,3.2
2023-01-21T04:09:31.582Z,3.2
2023-01-21T04:15:27.632Z,3.1
2023-01-21T04:21:02.923Z,3
2023-01-21T04:27:02.280Z,3
2023-01-21T04:33:50.870Z,3
2023-01-21T04:39:45.960Z,2.9
2023-01-21T04:45:45.110Z,2.9
2023-01-21T04:51:21.649Z,2.9
2023-01-21T04:56:57.938Z,2.9
2023-01-21T05:02:51.003Z,2.9
2023-01-21T05:08:27.352Z,3
2023-01-21T05:14:09.816Z,3
2023-01-21T05:20:04.548Z,2.8
2023-01-21T05:25:40.877Z,2.8
2023-01-21T05:31:19.604Z,2.8
2023-01-21T05:36:57.933Z,2.9
2023-01-21T05:42:53.833Z,2.9
2023-01-21T05:49:02.901Z,2.9
2023-01-21T05:55:00.205Z,2.8
2023-01-21T06:01:19.802Z,2.8
2023-01-21T06:07:16.281Z,2.7
2023-01-21T06:12:56.668Z,2.7
2023-01-21T06:18:34.858Z,2.6
2023-01-21T06:24:16.583Z,2.5
2023-01-21T06:29:54.249Z,2.5
2023-01-21T06:35:51.329Z,2.5
2023-01-21T06:41:26.870Z,2.4
2023-01-21T06:47:02.273Z,2.4
2023-01-21T06:52:38.555Z,2.3
2023-01-21T06:58:35.594Z,2.3
2023-01-21T07:04:10.753Z,2.4
2023-01-21T07:09:56.936Z,2.4
2023-01-21T07:15:49.860Z,2.4
2023-01-21T07:22:07.288Z,2.4
2023-01-21T07:28:20.971Z,1.9
2023-01-21T07:33:56.165Z,0.1
2023-01-21T07:39:30.997Z,-0.3
2023-01-21T07:45:06.095Z,-0.4
2023-01-21T07:50:41.972Z,-0.4
2023-01-21T07:56:16.798Z,-0.2
2023-01-21T08:01:52.250Z,0.1
2023-01-21T08:07:30.084Z,0.1
2023-01-21T08:13:05.667Z,0.7
2023-01-21T08:18:40.744Z,0.5
2023-01-21T08:24:19.107Z,0.6
2023-01-21T08:29:54.014Z,0.4
2023-01-21T08:35:29.061Z,0.9
2023-01-21T08:41:05.034Z,0.8
2023-01-21T08:46:43.125Z,0.9
2023-01-21T08:52:18.267Z,1.1
2023-01-21T08:57:53.938Z,0.7
2023-01-21T09:03:30.143Z,1.5
2023-01-21T09:09:10.232Z,1.7
2023-01-21T09:14:46.604Z,2.3
2023-01-21T09:20:26.858Z,2.1
2023-01-21T09:26:03.031Z,2.3
2023-01-21T09:31:38.365Z,2.1
2023-01-21T09:37:14.128Z,2
2023-01-21T09:42:49.747Z,2.4
2023-01-21T09:48:25.504Z,2.1
2023-01-21T09:54:01.273Z,2.2
2023-01-21T09:59:36.482Z,2.4
2023-01-21T10:05:12.042Z,3.2
2023-01-21T10:10:47.884Z,2.8
2023-01-21T10:16:23.665Z,3.8
2023-01-21T10:22:02.788Z,2.9
2023-01-21T10:27:38.405Z,2.9
2023-01-21T10:33:45.996Z,3
2023-01-21T10:39:22.437Z,4.5
2023-01-21T10:44:57.796Z,5.4
2023-01-21T10:50:33.679Z,5.4
2023-01-21T10:56:39.908Z,6
2023-01-21T11:02:18.826Z,6.6
2023-01-21T11:08:16.317Z,6.5
2023-01-21T11:13:56.364Z,5.3
2023-01-21T11:19:46.644Z,5.7
2023-01-21T11:25:24.566Z,6.4
2023-01-21T11:31:00.984Z,6.7
2023-01-21T11:36:39.755Z,6.8
2023-01-21T11:42:22.361Z,7
2023-01-21T11:48:19.773Z,7.4
2023-01-21T11:53:52.936Z,7.8
2023-01-21T11:59:38.153Z,7.8
2023-01-21T12:05:14.190Z,8.1
2023-01-21T12:11:32.168Z,7.9
2023-01-21T12:17:08.279Z,8.3
2023-01-21T12:22:44.000Z,8.8
2023-01-21T12:31:00.914Z,9.2
2023-01-21T12:37:30.592Z,9
2023-01-21T12:43:08.924Z,9.6
2023-01-21T12:48:44.037Z,9.9
2023-01-21T12:54:19.305Z,10.3
2023-01-21T12:59:54.810Z,8.9
2023-01-21T13:05:38.781Z,7.8
2023-01-21T13:11:26.041Z,7.6
2023-01-21T13:17:01.089Z,9.2
2023-01-21T13:22:42.769Z,10.2
2023-01-21T13:28:20.206Z,10.3
2023-01-21T13:33:55.813Z,8.8
2023-01-21T13:39:31.233Z,8.1
2023-01-21T13:45:10.483Z,8.5
2023-01-21T13:51:45.889Z,8.6
2023-01-21T13:57:32.812Z,9
2023-01-21T14:03:17.640Z,9.5
2023-01-21T14:08:55.460Z,8.8
2023-01-21T14:14:30.933Z,8.5
2023-01-21T14:20:18.070Z,8.7
2023-01-21T14:25:58.157Z,8.5
2023-01-21T14:31:36.042Z,8.3
2023-01-21T14:37:12.206Z,11.5
2023-01-21T14:42:47.263Z,13.1
2023-01-21T14:48:24.479Z,12.9
2023-01-21T14:54:03.869Z,10.8
2023-01-21T14:59:49.333Z,10.7
2023-01-21T15:05:50.954Z,10.5
2023-01-21T15:11:28.579Z,9.5
2023-01-21T15:17:07.995Z,8.6
2023-01-21T15:22:46.173Z,8.4
2023-01-21T15:28:25.530Z,8
2023-01-21T15:34:01.629Z,7.5
2023-01-21T15:39:42.439Z,7.8
2023-01-21T15:45:20.417Z,7.7
2023-01-21T15:50:56.011Z,7.5
2023-01-21T15:56:31.938Z,7.7
2023-01-21T16:02:22.922Z,8
2023-01-21T16:08:00.312Z,7.5
2023-01-21T16:13:37.089Z,7.6
2023-01-21T16:19:18.527Z,7.1
2023-01-21T16:24:56.970Z,6.7
2023-01-21T16:30:33.296Z,6.3
2023-01-21T16:36:40.790Z,5.9
2023-01-21T16:42:31.649Z,5.7
2023-01-21T16:48:33.925Z,5.6
2023-01-21T16:54:14.061Z,5.3
2023-01-21T17:00:05.951Z,5
2023-01-21T17:05:45.100Z,4.7
2023-01-21T17:11:19.794Z,4.5
2023-01-21T17:16:59.430Z,4.5
2023-01-21T17:22:34.869Z,4.3
2023-01-21T17:28:10.386Z,4.3
2023-01-21T17:33:57.766Z,4.7
2023-01-21T17:39:34.038Z,5.8
2023-01-21T17:45:09.076Z,6.3
2023-01-21T17:50:55.419Z,6.6
2023-01-21T17:56:34.839Z,6.7
2023-01-21T18:02:48.078Z,6.6
2023-01-21T18:08:24.620Z,6.5
2023-01-21T18:13:59.590Z,6.5
2023-01-21T18:19:35.758Z,6.5
2023-01-21T18:25:11.308Z,6.5
2023-01-21T18:30:50.700Z,6.5
2023-01-21T18:36:27.991Z,6.5
2023-01-21T18:42:16.626Z,6.4
2023-01-21T18:48:31.282Z,6.4
2023-01-21T18:54:05.320Z,6.4
2023-01-21T18:59:41.220Z,6.4
2023-01-21T19:05:17.274Z,6.4
2023-01-21T19:11:01.945Z,6.3
2023-01-21T19:16:45.946Z,6.3
2023-01-21T19:22:52.055Z,6.3
2023-01-21T19:28:28.330Z,6.3
2023-01-21T19:34:06.260Z,6.2
2023-01-21T19:39:44.210Z,6.1
2023-01-21T19:45:20.344Z,6.1
2023-01-21T19:50:58.642Z,6.1
2023-01-21T19:56:34.705Z,6.2
2023-01-21T20:02:19.616Z,6.1
2023-01-21T20:08:00.678Z,6
2023-01-21T20:13:56.644Z,5.9
2023-01-21T20:19:36.580Z,6
2023-01-21T20:25:15.095Z,5.9
2023-01-21T20:31:18.511Z,5.9
2023-01-21T20:37:03.762Z,5.9
2023-01-21T20:42:39.238Z,6
2023-01-21T20:48:16.993Z,6
2023-01-21T20:53:52.746Z,6.1
2023-01-21T20:59:28.223Z,6.1
2023-01-21T21:05:10.615Z,6.1
2023-01-21T21:11:30.591Z,6.1
2023-01-21T21:17:05.943Z,6
2023-01-21T21:23:12.604Z,5.9
2023-01-21T21:28:49.942Z,5.8
2023-01-21T21:34:50.882Z,5.6
2023-01-21T21:40:25.723Z,5.5
2023-01-21T21:46:04.876Z,5.5
2023-01-21T21:51:47.420Z,5.5
2023-01-21T21:57:28.152Z,5.4
2023-01-21T22:03:03.592Z,5.3
2023-01-21T22:08:38.537Z,5.2
2023-01-21T22:14:34.376Z,5.2
2023-01-21T22:20:13.066Z,5.1
2023-01-21T22:25:48.557Z,5.1
2023-01-21T22:31:27.237Z,5.2
2023-01-21T22:37:04.903Z,5.2
2023-01-21T22:42:50.067Z,5.1
2023-01-21T22:48:49.860Z,5.1
2023-01-21T22:54:22.912Z,5
2023-01-21T23:00:09.660Z,5
2023-01-21T23:06:21.867Z,4.9
2023-01-21T23:12:13.538Z,4.9
2023-01-21T23:18:02.258Z,4.9
2023-01-21T23:23:38.220Z,4.9
2023-01-21T23:29:13.438Z,4.9
2023-01-21T23:34:48.713Z,4.9
2023-01-21T23:40:23.792Z,4.7
2023-01-21T23:46:31.015Z,4.7
2023-01-21T23:52:05.403Z,4.6
2023-01-21T23:57:49.456Z,4.7
